Archival Weather

Chicago O'Hare International

Chicago, Illinois (KORD)

Report from: Tuesday, February 27, 2024 3:51 PM CST
Current time: Wednesday, May 29, 2024 8:19 PM CDT

Current weather – Weather history – Daily summaries
Weather forecast

Temperature21.7°C (71.1°F)
Dew point14.4°C (57.9°F)
Winds 12 kts (6.2 m/s, 13.8 mph) South (170°)
Wind gusts 19 kts (9.8 m/s, 21.9 mph)
Visibility10 mi. (16.1 km)
Clouds Few clouds 3,000 ft. (914 m)
Few clouds 15,000 ft. (4,572 m)
Ceiling: Broken clouds 25,000 ft. (7,620 m)
Altimeter29.27 in.Hg (991 mB)
Relative humidity63 %
Density altitude1,768 ft. (539 m)
Sea-level pressure99.1 kPa (991 mB, 29.26 in.Hg)
Remarks System requires maintenance
Automated weather observing station with precipitation discriminator
Virga observed overhead
Flight conditions Visual Meteorological Conditions
Raw dataKORD 272151Z 17012G19KT 10SM FEW030 FEW150 BKN250 22/14 A2927 RMK AO2 SLP909 VIRGA OHD T02170144 $
An error has occurred. This application may no longer respond until reloaded. Reload 🗙